Terminal Aerodrome Forecast
Issued by NWS Paducah, KY

Home | Current Version | Previous Version | Text Only | Print | Product List | Glossary On
Versions: 1 2 3 4 5 6 7 8 9 10 11 12 13 14 15 16 17 18 19 20
000
FTUS43 KPAH 191745
TAFEVV
TAF
KEVV 191745Z 1918/2018 20014G28KT P6SM OVC015
     FM191900 20016G29KT P6SM BKN020
     FM192300 19011G22KT P6SM BKN040
     FM200600 19012G21KT P6SM BKN060 WS020/20050KT
     FM201300 19014G23KT P6SM OVC020
     FM201600 19016G27KT P6SM BKN035=

USA.gov is the U.S. government's official web portal to all federal, state and local government web resources and services.